Anglian Lady — VOLP — position and weather

sailwx.info

Track history (hours):
 
Tides and Currents Weather Stations Pressure Air Temp Water Temp Dewpoint Dewpoint Depression Visibility Wind Speed Wind Dir Waves Ship Positions

Anglian Lady

Last reported at 2015-Jan-19 20:23 UTC. Time now 2015-Mar-02 05:09 UTC.
Position N 45°52' W 084°15'.
Warning: this ship's position is 41 days out of date.

Length 32 m.

Type: Tug. MMSI: 316002238.

Date/timePositionNaut miles runAvg speedWind from/ knotsBaromVisibWave heightAir tempDewpointWater temp
2015-Jan-19 20:23N 45°52' W 084°15'8 9.4
2015-Jan-19 19:33N 45°51' W 084°26'9 8.8
2015-Jan-19 18:33N 45°50' W 084°39'7 7.0
2015-Jan-19 17:33N 45°50' W 084°49'5 5.0
2015-Jan-19 16:33N 45°50' W 084°56'3 3.4
2015-Jan-19 15:33N 45°51' W 085°01'1 0.8
2015-Jan-19 14:33N 45°51' W 085°02'2 1.7
2015-Jan-19 13:33N 45°51' W 085°04'0 0.0
2015-Jan-19 12:33N 45°51' W 085°04'0 0.0
2015-Jan-19 11:33N 45°51' W 085°04'0 0.0
2015-Jan-19 10:33N 45°51' W 085°04'0 0.0
2015-Jan-19 09:33N 45°51' W 085°04'0 0.0
2015-Jan-19 08:33N 45°51' W 085°04'0 0.0
2015-Jan-19 07:33N 45°51' W 085°04'0 0.0
2015-Jan-19 06:33N 45°51' W 085°04'0 0.0
2015-Jan-19 05:33N 45°51' W 085°04'0 0.0
2015-Jan-19 04:33N 45°51' W 085°04'0 0.0
2015-Jan-19 03:33N 45°51' W 085°04'0 0.0
2015-Jan-19 02:33N 45°51' W 085°04'0 0.0
2015-Jan-19 01:33N 45°51' W 085°04'0 0.0
2015-Jan-19 00:33N 45°51' W 085°04'0 0.0
2015-Jan-18 23:33N 45°51' W 085°04'0 0.0
2015-Jan-18 22:33N 45°51' W 085°04'0 0.0
2015-Jan-18 21:33N 45°51' W 085°04'0 0.0
2015-Jan-18 20:33N 45°51' W 085°04'0 0.1
2015-Jan-18 19:33N 45°51' W 085°04'0 0.1
2015-Jan-18 18:33N 45°51' W 085°04'1 0.6
2015-Jan-18 17:33N 45°52' W 085°05'2 1.7
2015-Jan-18 16:33N 45°52' W 085°08'2 1.6
2015-Jan-18 15:33N 45°52' W 085°10'6 5.7
2015-Jan-18 14:33N 45°52' W 085°18'4 4.1
2015-Jan-18 13:33N 45°52' W 085°24'1 1.1
2015-Jan-18 12:33N 45°52' W 085°25'0 0.4
2015-Jan-18 11:33N 45°52' W 085°26'0 0.4
2015-Jan-18 10:33N 45°52' W 085°27'1 0.5
2015-Jan-18 09:33N 45°53' W 085°27'0 0.5
2015-Jan-18 08:33N 45°53' W 085°28'0 0.4
2015-Jan-18 07:33N 45°53' W 085°28'0 0.4
2015-Jan-18 06:33N 45°53' W 085°29'0 0.3
2015-Jan-18 05:33N 45°53' W 085°29'0 0.3
2015-Jan-18 04:33N 45°53' W 085°30'3 3.2
2015-Jan-18 03:33N 45°53' W 085°34'1 1.2
2015-Jan-18 02:33N 45°53' W 085°36'4 3.7
2015-Jan-18 01:33N 45°52' W 085°41'8 8.2
2015-Jan-18 00:33N 45°48' W 085°51'9 8.5
2015-Jan-17 23:33N 45°42' W 086°01'8 8.1
2015-Jan-17 22:33N 45°38' W 086°11'  
2015-Jan-12 12:05N 45°51' W 086°09'3 6.3
2015-Jan-12 11:33N 45°48' W 086°11'7 7.1
2015-Jan-12 10:33N 45°42' W 086°17'19 1.5
2015-Jan-11 21:33N 45°47' W 085°50'7 7.1
2015-Jan-11 20:33N 45°51' W 085°42'5 5.3
2015-Jan-11 19:33N 45°53' W 085°35'3 3.1
2015-Jan-11 18:33N 45°53' W 085°30'7 6.8
2015-Jan-11 17:31N 45°53' W 085°20'4 4.2
2015-Jan-11 16:33N 45°53' W 085°14'0 0.4
2015-Jan-11 15:33N 45°53' W 085°14'4 3.7
2015-Jan-11 14:33N 45°52' W 085°08'1 1.2
2015-Jan-11 13:33N 45°52' W 085°07'6 5.6
2015-Jan-11 12:33N 45°51' W 084°59'0 0.1
2015-Jan-11 11:33N 45°51' W 084°59'0 0.0
2015-Jan-11 10:33N 45°51' W 084°59'0 0.0
2015-Jan-11 09:33N 45°51' W 084°59'0 0.0
2015-Jan-11 08:33N 45°51' W 084°59'0 0.0
2015-Jan-11 07:33N 45°51' W 084°59'0 0.0
2015-Jan-11 06:33N 45°51' W 084°59'0 0.0
2015-Jan-11 05:33N 45°51' W 084°59'0 0.0
2015-Jan-11 04:33N 45°51' W 084°59'0 0.0
2015-Jan-11 03:33N 45°51' W 084°59'0 0.0
2015-Jan-11 02:33N 45°51' W 084°59'0 0.0
2015-Jan-11 01:33N 45°51' W 084°59'4 3.5
2015-Jan-11 00:33N 45°50' W 084°54'2 1.5
2015-Jan-10 23:32N 45°50' W 084°51'0 0.0
2015-Jan-10 22:33N 45°50' W 084°51'0 0.0
2015-Jan-10 21:33N 45°50' W 084°51'0 0.0
2015-Jan-10 20:33N 45°50' W 084°51'0 0.0
2015-Jan-10 19:33N 45°50' W 084°51'0 0.0
2015-Jan-10 18:33N 45°50' W 084°51'0 0.0
2015-Jan-10 17:33N 45°50' W 084°51'0 0.0
2015-Jan-10 16:33N 45°50' W 084°51'0 0.0
2015-Jan-10 15:33N 45°50' W 084°51'0 0.0
2015-Jan-10 14:33N 45°50' W 084°51'0 0.0
2015-Jan-10 13:33N 45°50' W 084°51'0 0.0
2015-Jan-10 12:33N 45°50' W 084°51'0 0.0
2015-Jan-10 11:33N 45°50' W 084°51'0 0.0
2015-Jan-10 10:33N 45°50' W 084°51'0 0.0
2015-Jan-10 09:33N 45°50' W 084°51'0 0.0
2015-Jan-10 08:33N 45°50' W 084°51'0 0.0
2015-Jan-10 07:33N 45°50' W 084°51'0 0.0
2015-Jan-10 06:33N 45°50' W 084°51'0 0.0
2015-Jan-10 05:33N 45°50' W 084°51'0 0.0
2015-Jan-10 04:33N 45°50' W 084°51'0 0.0
2015-Jan-10 03:33N 45°50' W 084°51'0 0.0
2015-Jan-10 02:33N 45°50' W 084°51'0 0.0
2015-Jan-10 01:33N 45°50' W 084°51'0 0.0
2015-Jan-10 00:33N 45°50' W 084°51'0 0.0
2015-Jan-09 23:33N 45°50' W 084°51'0 0.0
2015-Jan-09 22:33N 45°50' W 084°51'0 0.0
2015-Jan-09 21:33N 45°50' W 084°51'0 0.0
2015-Jan-09 20:33N 45°50' W 084°51'  
Track history (hours):
 
Tides and Currents Weather Stations Pressure Air Temp Water Temp Dewpoint Dewpoint Depression Visibility Wind Speed Wind Dir Waves Ship Positions

Anglian Lady

Last reported at 2015-Jan-19 20:23 UTC. Time now 2015-Mar-02 05:09 UTC.
Position N 45°52' W 084°15'.
Warning: this ship's position is 41 days out of date.

Length 32 m.

Type: Tug. MMSI: 316002238.

Date/timePositionNaut miles runAvg speedWind from/ knotsBaromVisibWave heightAir tempDewpointWater temp
2015-Jan-19 20:23N 45°52' W 084°15'8 9.4
2015-Jan-19 19:33N 45°51' W 084°26'9 8.8
2015-Jan-19 18:33N 45°50' W 084°39'7 7.0
2015-Jan-19 17:33N 45°50' W 084°49'5 5.0
2015-Jan-19 16:33N 45°50' W 084°56'3 3.4
2015-Jan-19 15:33N 45°51' W 085°01'1 0.8
2015-Jan-19 14:33N 45°51' W 085°02'2 1.7
2015-Jan-19 13:33N 45°51' W 085°04'0 0.0
2015-Jan-19 12:33N 45°51' W 085°04'0 0.0
2015-Jan-19 11:33N 45°51' W 085°04'0 0.0
2015-Jan-19 10:33N 45°51' W 085°04'0 0.0
2015-Jan-19 09:33N 45°51' W 085°04'0 0.0
2015-Jan-19 08:33N 45°51' W 085°04'0 0.0
2015-Jan-19 07:33N 45°51' W 085°04'0 0.0
2015-Jan-19 06:33N 45°51' W 085°04'0 0.0
2015-Jan-19 05:33N 45°51' W 085°04'0 0.0
2015-Jan-19 04:33N 45°51' W 085°04'0 0.0
2015-Jan-19 03:33N 45°51' W 085°04'0 0.0
2015-Jan-19 02:33N 45°51' W 085°04'0 0.0
2015-Jan-19 01:33N 45°51' W 085°04'0 0.0
2015-Jan-19 00:33N 45°51' W 085°04'0 0.0
2015-Jan-18 23:33N 45°51' W 085°04'0 0.0
2015-Jan-18 22:33N 45°51' W 085°04'0 0.0
2015-Jan-18 21:33N 45°51' W 085°04'0 0.0
2015-Jan-18 20:33N 45°51' W 085°04'0 0.1
2015-Jan-18 19:33N 45°51' W 085°04'0 0.1
2015-Jan-18 18:33N 45°51' W 085°04'1 0.6
2015-Jan-18 17:33N 45°52' W 085°05'2 1.7
2015-Jan-18 16:33N 45°52' W 085°08'2 1.6
2015-Jan-18 15:33N 45°52' W 085°10'6 5.7
2015-Jan-18 14:33N 45°52' W 085°18'4 4.1
2015-Jan-18 13:33N 45°52' W 085°24'1 1.1
2015-Jan-18 12:33N 45°52' W 085°25'0 0.4
2015-Jan-18 11:33N 45°52' W 085°26'0 0.4
2015-Jan-18 10:33N 45°52' W 085°27'1 0.5
2015-Jan-18 09:33N 45°53' W 085°27'0 0.5
2015-Jan-18 08:33N 45°53' W 085°28'0 0.4
2015-Jan-18 07:33N 45°53' W 085°28'0 0.4
2015-Jan-18 06:33N 45°53' W 085°29'0 0.3
2015-Jan-18 05:33N 45°53' W 085°29'0 0.3
2015-Jan-18 04:33N 45°53' W 085°30'3 3.2
2015-Jan-18 03:33N 45°53' W 085°34'1 1.2
2015-Jan-18 02:33N 45°53' W 085°36'4 3.7
2015-Jan-18 01:33N 45°52' W 085°41'8 8.2
2015-Jan-18 00:33N 45°48' W 085°51'9 8.5
2015-Jan-17 23:33N 45°42' W 086°01'8 8.1
2015-Jan-17 22:33N 45°38' W 086°11'  
2015-Jan-12 12:05N 45°51' W 086°09'3 6.3
2015-Jan-12 11:33N 45°48' W 086°11'7 7.1
2015-Jan-12 10:33N 45°42' W 086°17'19 1.5
2015-Jan-11 21:33N 45°47' W 085°50'7 7.1
2015-Jan-11 20:33N 45°51' W 085°42'5 5.3
2015-Jan-11 19:33N 45°53' W 085°35'3 3.1
2015-Jan-11 18:33N 45°53' W 085°30'7 6.8
2015-Jan-11 17:31N 45°53' W 085°20'4 4.2
2015-Jan-11 16:33N 45°53' W 085°14'0 0.4
2015-Jan-11 15:33N 45°53' W 085°14'4 3.7
2015-Jan-11 14:33N 45°52' W 085°08'1 1.2
2015-Jan-11 13:33N 45°52' W 085°07'6 5.6
2015-Jan-11 12:33N 45°51' W 084°59'0 0.1
2015-Jan-11 11:33N 45°51' W 084°59'0 0.0
2015-Jan-11 10:33N 45°51' W 084°59'0 0.0
2015-Jan-11 09:33N 45°51' W 084°59'0 0.0
2015-Jan-11 08:33N 45°51' W 084°59'0 0.0
2015-Jan-11 07:33N 45°51' W 084°59'0 0.0
2015-Jan-11 06:33N 45°51' W 084°59'0 0.0
2015-Jan-11 05:33N 45°51' W 084°59'0 0.0
2015-Jan-11 04:33N 45°51' W 084°59'0 0.0
2015-Jan-11 03:33N 45°51' W 084°59'0 0.0
2015-Jan-11 02:33N 45°51' W 084°59'0 0.0
2015-Jan-11 01:33N 45°51' W 084°59'4 3.5
2015-Jan-11 00:33N 45°50' W 084°54'2 1.5
2015-Jan-10 23:32N 45°50' W 084°51'0 0.0
2015-Jan-10 22:33N 45°50' W 084°51'0 0.0
2015-Jan-10 21:33N 45°50' W 084°51'0 0.0
2015-Jan-10 20:33N 45°50' W 084°51'0 0.0
2015-Jan-10 19:33N 45°50' W 084°51'0 0.0
2015-Jan-10 18:33N 45°50' W 084°51'0 0.0
2015-Jan-10 17:33N 45°50' W 084°51'0 0.0
2015-Jan-10 16:33N 45°50' W 084°51'0 0.0
2015-Jan-10 15:33N 45°50' W 084°51'0 0.0
2015-Jan-10 14:33N 45°50' W 084°51'0 0.0
2015-Jan-10 13:33N 45°50' W 084°51'0 0.0
2015-Jan-10 12:33N 45°50' W 084°51'0 0.0
2015-Jan-10 11:33N 45°50' W 084°51'0 0.0
2015-Jan-10 10:33N 45°50' W 084°51'0 0.0
2015-Jan-10 09:33N 45°50' W 084°51'0 0.0
2015-Jan-10 08:33N 45°50' W 084°51'0 0.0
2015-Jan-10 07:33N 45°50' W 084°51'0 0.0
2015-Jan-10 06:33N 45°50' W 084°51'0 0.0
2015-Jan-10 05:33N 45°50' W 084°51'0 0.0
2015-Jan-10 04:33N 45°50' W 084°51'0 0.0
2015-Jan-10 03:33N 45°50' W 084°51'0 0.0
2015-Jan-10 02:33N 45°50' W 084°51'0 0.0
2015-Jan-10 01:33N 45°50' W 084°51'0 0.0
2015-Jan-10 00:33N 45°50' W 084°51'0 0.0
2015-Jan-09 23:33N 45°50' W 084°51'0 0.0
2015-Jan-09 22:33N 45°50' W 084°51'0 0.0
2015-Jan-09 21:33N 45°50' W 084°51'0 0.0
2015-Jan-09 20:33N 45°50' W 084°51'  

Dump ship's entire track history